Time;durP1;ratioP1;P1;durP2;ratioP2;P2;SDS_P1;SDS_P2;PMS_P1;PMS_P2;Temp;Humidity;BMP_temperature;BMP_pressure;BME280_temperature;BME280_humidity;BME280_pressure;Samples;Min_cycle;Max_cycle;Signal;HPM_P1;HPM_P2
2021/08/19 00:01:34;;;;;;;4.10;3.80;;;18.90;81.40;;;;;;5031598;28;20308;-54
2021/08/19 00:04:00;;;;;;;4.60;4.30;;;18.90;99.90;;;;;;5031112;28;20491;-53
2021/08/19 00:06:26;;;;;;;3.40;3.20;;;18.90;99.90;;;;;;5033243;28;20448;-55
2021/08/19 00:08:51;;;;;;;4.20;3.93;;;18.80;99.90;;;;;;5030395;28;20187;-55
2021/08/19 00:11:17;;;;;;;3.87;3.57;;;18.90;99.90;;;;;;5033033;28;20208;-54
2021/08/19 00:13:43;;;;;;;4.77;4.43;;;18.90;99.90;;;;;;5031265;28;20185;-54
2021/08/19 00:16:08;;;;;;;4.63;4.27;;;18.90;99.90;;;;;;5032164;28;20183;-55
2021/08/19 00:18:35;;;;;;;4.77;4.47;;;18.90;99.90;;;;;;5030082;28;20544;-56
2021/08/19 00:21:01;;;;;;;4.67;4.37;;;18.80;99.90;;;;;;5030725;28;20549;-53
2021/08/19 00:23:27;;;;;;;4.30;4.00;;;18.90;99.90;;;;;;5030337;28;20458;-55
2021/08/19 00:25:52;;;;;;;4.37;4.00;;;18.90;99.90;;;;;;5031312;28;20194;-54
2021/08/19 00:28:18;;;;;;;4.27;3.97;;;18.80;99.90;;;;;;5031267;28;20568;-53
2021/08/19 00:30:43;;;;;;;4.37;4.07;;;18.80;99.90;;;;;;5031957;28;20826;-53
2021/08/19 00:33:10;;;;;;;5.20;4.80;;;18.80;99.90;;;;;;5030767;28;20265;-55
2021/08/19 00:35:37;;;;;;;4.57;4.27;;;18.80;99.90;;;;;;5029260;28;20178;-51
2021/08/19 00:38:02;;;;;;;5.23;4.83;;;18.80;99.90;;;;;;5023549;28;20436;-55
2021/08/19 00:40:29;;;;;;;4.53;4.23;;;18.80;99.90;;;;;;5032473;28;20428;-53
2021/08/19 00:42:56;;;;;;;5.00;4.60;;;18.80;99.90;;;;;;5030348;28;20532;-55
2021/08/19 00:45:21;;;;;;;4.90;4.60;;;18.90;99.90;;;;;;5029585;28;20433;-54
2021/08/19 00:47:47;;;;;;;4.90;4.60;;;18.90;99.90;;;;;;5028329;28;20949;-55
2021/08/19 00:50:14;;;;;;;4.67;4.30;;;18.90;99.90;;;;;;5025399;28;20218;-55
2021/08/19 00:52:41;;;;;;;4.93;4.53;;;18.80;99.90;;;;;;5030235;28;20432;-56
2021/08/19 00:55:07;;;;;;;4.97;4.53;;;18.90;99.90;;;;;;5031577;28;21132;-54
2021/08/19 00:57:34;;;;;;;4.50;4.20;;;18.90;99.80;;;;;;5030723;28;20446;-56
2021/08/19 01:00:00;;;;;;;4.33;4.03;;;18.90;99.90;;;;;;5030589;28;20531;-55
2021/08/19 01:02:25;;;;;;;4.43;4.13;;;18.90;18.30;;;;;;5029858;28;20477;-54
2021/08/19 01:04:51;;;;;;;4.40;4.00;;;18.90;28.90;;;;;;5030732;28;20656;-54
2021/08/19 01:07:17;;;;;;;4.80;4.50;;;18.90;56.10;;;;;;5030122;28;20187;-51
2021/08/19 01:09:43;;;;;;;4.53;4.23;;;18.90;15.90;;;;;;5030449;28;20191;-53
2021/08/19 01:12:10;;;;;;;3.93;3.70;;;18.90;7.20;;;;;;5030243;28;20455;-52
2021/08/19 01:14:37;;;;;;;4.70;4.40;;;18.80;1.00;;;;;;5029252;28;20446;-49
2021/08/19 01:17:07;;;;;;;5.17;4.43;;;18.80;32.70;;;;;;5031147;28;21172;-55
2021/08/19 01:19:33;;;;;;;4.53;4.17;;;18.90;1.00;;;;;;5029074;28;20770;-53
2021/08/19 01:21:58;;;;;;;4.57;4.27;;;18.80;1.00;;;;;;5029818;28;20450;-54
2021/08/19 01:24:24;;;;;;;4.97;4.67;;;18.90;1.00;;;;;;5029279;28;20243;-54
2021/08/19 01:26:50;;;;;;;4.27;3.97;;;18.80;1.00;;;;;;5030193;28;20185;-56
2021/08/19 01:29:16;;;;;;;4.77;4.33;;;18.90;1.00;;;;;;5029418;28;20190;-56
2021/08/19 01:31:56;;;;;;;5.13;4.73;;;19.00;1.00;;;;;;5029045;28;20487;-53
2021/08/19 01:34:21;;;;;;;4.63;4.33;;;19.00;1.00;;;;;;5029429;28;21066;-54
2021/08/19 01:36:47;;;;;;;4.40;4.10;;;19.00;1.00;;;;;;5030061;28;20520;-54
2021/08/19 01:39:12;;;;;;;4.77;4.47;;;18.90;1.00;;;;;;5029257;28;20635;-53
2021/08/19 01:41:38;;;;;;;4.83;4.47;;;19.00;1.00;;;;;;5032237;28;20198;-52
2021/08/19 01:44:04;;;;;;;4.90;4.50;;;18.90;1.00;;;;;;5031485;28;20182;-56
2021/08/19 01:46:29;;;;;;;4.10;3.80;;;19.00;1.00;;;;;;5031383;28;20198;-56
2021/08/19 01:48:55;;;;;;;4.53;4.23;;;19.00;1.00;;;;;;5030890;28;20232;-56
2021/08/19 01:51:20;;;;;;;4.80;4.40;;;19.00;1.00;;;;;;5032480;28;20213;-53
2021/08/19 01:53:52;;;;;;;5.03;4.63;;;18.90;1.00;;;;;;5030612;28;20198;-52
2021/08/19 01:56:19;;;;;;;4.40;4.10;;;18.80;1.00;;;;;;5030031;28;20214;-52
2021/08/19 01:58:48;;;;;;;4.00;3.70;;;18.90;1.00;;;;;;5032056;28;20922;-51
2021/08/19 02:01:18;;;;;;;5.13;4.73;;;18.80;1.00;;;;;;5031527;28;20485;-52
2021/08/19 02:03:43;;;;;;;5.67;5.27;;;18.90;1.00;;;;;;5029282;28;20471;-55
2021/08/19 02:06:09;;;;;;;5.37;4.97;;;18.90;1.00;;;;;;5030742;28;20444;-55
2021/08/19 02:08:34;;;;;;;4.70;4.40;;;18.90;1.00;;;;;;5028492;28;20311;-55
2021/08/19 02:11:00;;;;;;;4.87;4.53;;;18.90;1.00;;;;;;5032169;28;20220;-51
2021/08/19 02:13:25;;;;;;;4.37;4.07;;;18.90;1.00;;;;;;5029428;28;20848;-51
2021/08/19 02:15:51;;;;;;;5.10;4.70;;;18.90;1.00;;;;;;5024742;28;20186;-56
2021/08/19 02:18:16;;;;;;;4.33;4.00;;;18.80;1.00;;;;;;5029764;28;20280;-53
2021/08/19 02:20:42;;;;;;;5.30;4.80;;;18.80;1.00;;;;;;5031945;28;20570;-53
2021/08/19 02:23:07;;;;;;;5.17;4.77;;;18.80;1.00;;;;;;5032190;28;20797;-53
2021/08/19 02:25:33;;;;;;;4.60;4.30;;;18.80;1.00;;;;;;5030791;28;20182;-54
2021/08/19 02:27:59;;;;;;;4.60;4.20;;;18.80;1.00;;;;;;5030448;28;20209;-56
2021/08/19 02:30:25;;;;;;;4.73;4.33;;;18.80;1.00;;;;;;5031320;28;20335;-51
2021/08/19 02:32:56;;;;;;;4.10;3.80;;;18.70;1.90;;;;;;5029387;28;20277;-54
2021/08/19 02:35:26;;;;;;;4.93;4.60;;;18.70;1.00;;;;;;5031467;28;20425;-55
2021/08/19 02:37:53;;;;;;;5.37;4.87;;;18.70;1.00;;;;;;5030758;28;20443;-53
2021/08/19 02:40:19;;;;;;;5.00;4.60;;;18.70;1.00;;;;;;5024886;28;20428;-56
2021/08/19 02:42:45;;;;;;;4.80;4.50;;;18.70;1.00;;;;;;5029601;28;20464;-54
2021/08/19 02:45:11;;;;;;;5.60;5.20;;;18.70;1.00;;;;;;5029145;28;20444;-52
2021/08/19 02:47:37;;;;;;;5.10;4.70;;;18.80;1.00;;;;;;5028102;28;20304;-52
2021/08/19 02:50:03;;;;;;;5.17;4.83;;;18.80;1.00;;;;;;5028668;28;20552;-55
2021/08/19 02:52:28;;;;;;;4.70;4.40;;;18.70;1.00;;;;;;5029350;28;20290;-52
2021/08/19 02:54:54;;;;;;;4.83;4.53;;;18.70;1.00;;;;;;5028764;28;20455;-55
2021/08/19 02:57:19;;;;;;;5.57;5.17;;;18.60;1.00;;;;;;5029830;28;20294;-55
2021/08/19 02:59:45;;;;;;;4.80;4.50;;;18.60;1.00;;;;;;5027959;28;20648;-55
2021/08/19 03:02:10;;;;;;;5.07;4.77;;;18.60;1.00;;;;;;5029905;28;20265;-55
2021/08/19 03:04:36;;;;;;;5.40;5.00;;;18.60;1.00;;;;;;5027148;28;20198;-53
2021/08/19 03:07:01;;;;;;;4.73;4.43;;;18.70;1.00;;;;;;5026246;28;20193;-57
2021/08/19 03:09:27;;;;;;;4.87;4.47;;;18.60;1.00;;;;;;5029915;28;20189;-55
2021/08/19 03:11:53;;;;;;;5.23;4.83;;;18.70;1.00;;;;;;5028117;28;20222;-56
2021/08/19 03:14:18;;;;;;;5.70;5.30;;;18.60;1.00;;;;;;5029061;28;20210;-56
2021/08/19 03:16:44;;;;;;;5.77;5.30;;;18.50;1.00;;;;;;5028126;28;20209;-52
2021/08/19 03:19:10;;;;;;;6.00;5.60;;;18.60;1.00;;;;;;5027958;28;20179;-55
2021/08/19 03:21:36;;;;;;;6.00;5.50;;;18.60;1.00;;;;;;5028624;28;20197;-55
2021/08/19 03:24:03;;;;;;;5.87;5.37;;;18.60;1.00;;;;;;5028984;28;20202;-54
2021/08/19 03:26:30;;;;;;;5.00;4.60;;;18.50;1.00;;;;;;5017682;28;21149;-52
2021/08/19 03:28:56;;;;;;;5.30;4.90;;;18.50;1.00;;;;;;5027824;28;20592;-52
2021/08/19 03:31:21;;;;;;;5.23;4.83;;;18.60;1.00;;;;;;5026861;28;20593;-55
2021/08/19 03:33:46;;;;;;;5.30;4.90;;;18.60;1.00;;;;;;5029169;28;20274;-55
2021/08/19 03:36:12;;;;;;;5.20;4.80;;;18.50;1.00;;;;;;5028311;28;20223;-56
2021/08/19 03:38:38;;;;;;;5.33;4.93;;;18.50;1.00;;;;;;5028542;28;20190;-53
2021/08/19 03:41:03;;;;;;;4.90;4.60;;;18.50;1.00;;;;;;5026895;28;20194;-51
2021/08/19 03:43:29;;;;;;;5.27;4.90;;;18.60;1.00;;;;;;5027330;28;20193;-56
2021/08/19 03:45:55;;;;;;;5.10;4.70;;;18.60;1.00;;;;;;5028289;28;20638;-52
2021/08/19 03:48:21;;;;;;;5.40;5.00;;;18.60;1.00;;;;;;5026716;28;20186;-55
2021/08/19 03:50:47;;;;;;;5.17;4.87;;;18.60;1.00;;;;;;5025486;28;20220;-55
2021/08/19 03:53:12;;;;;;;5.57;5.17;;;18.60;1.00;;;;;;5028064;28;20852;-55
2021/08/19 03:55:38;;;;;;;5.40;5.07;;;18.60;1.00;;;;;;5025328;28;20276;-55
2021/08/19 03:58:04;;;;;;;5.17;4.77;;;18.60;1.00;;;;;;5025485;28;20184;-57
2021/08/19 04:00:30;;;;;;;5.13;4.80;;;18.60;1.00;;;;;;5022495;28;20232;-56
2021/08/19 04:02:55;;;;;;;5.33;4.93;;;18.60;1.00;;;;;;5028604;28;20184;-55
2021/08/19 04:05:21;;;;;;;5.57;5.17;;;18.50;1.00;;;;;;5026355;28;20801;-54
2021/08/19 04:07:47;;;;;;;5.40;5.00;;;18.40;1.00;;;;;;5022011;28;20214;-56
2021/08/19 04:10:12;;;;;;;4.90;4.60;;;18.40;1.00;;;;;;5017930;28;20668;-53
2021/08/19 04:12:38;;;;;;;5.57;5.17;;;18.40;1.00;;;;;;5016964;28;20187;-51
2021/08/19 04:15:05;;;;;;;5.20;4.80;;;18.40;42.90;;;;;;5018012;28;20444;-53
2021/08/19 04:17:31;;;;;;;5.80;5.23;;;18.40;88.50;;;;;;5016335;28;20189;-55
2021/08/19 04:19:57;;;;;;;6.20;5.70;;;18.50;1.00;;;;;;5018118;28;20494;-56
2021/08/19 04:22:23;;;;;;;5.20;4.90;;;18.60;1.00;;;;;;5017820;28;20252;-58
2021/08/19 04:24:48;;;;;;;5.13;4.83;;;18.50;1.00;;;;;;5018109;28;20190;-53
2021/08/19 04:27:14;;;;;;;4.53;4.23;;;18.50;24.20;;;;;;5013983;28;20202;-55
2021/08/19 04:29:39;;;;;;;4.90;4.60;;;18.40;99.90;;;;;;5015759;28;20189;-54
2021/08/19 04:32:05;;;;;;;5.30;4.90;;;18.50;99.90;;;;;;5019282;28;20217;-52
2021/08/19 04:34:31;;;;;;;5.10;4.70;;;18.50;99.90;;;;;;5018060;28;20583;-56
2021/08/19 04:36:56;;;;;;;5.00;4.70;;;18.60;99.90;;;;;;5012575;28;20191;-52
2021/08/19 04:39:23;;;;;;;4.90;4.50;;;18.60;99.90;;;;;;5016630;28;20561;-53
2021/08/19 04:41:50;;;;;;;5.47;5.00;;;18.50;99.90;;;;;;5023477;28;20206;-55
2021/08/19 04:44:16;;;;;;;5.20;4.70;;;18.40;99.90;;;;;;5031358;28;21167;-54
2021/08/19 04:46:41;;;;;;;4.90;4.60;;;18.50;99.90;;;;;;5030827;28;20955;-52
2021/08/19 04:49:07;;;;;;;4.83;4.37;;;18.70;99.90;;;;;;5031558;28;20449;-51
2021/08/19 04:51:36;;;;;;;4.80;4.40;;;18.60;99.90;;;;;;5032300;28;20279;-54
2021/08/19 04:54:03;;;;;;;4.73;4.43;;;18.60;99.90;;;;;;5031061;28;20221;-52
2021/08/19 04:56:36;;;;;;;5.20;4.80;;;18.60;99.90;;;;;;5030312;28;20427;-56
2021/08/19 04:59:03;;;;;;;4.63;4.33;;;18.60;99.90;;;;;;5031457;28;20851;-49
2021/08/19 05:01:28;;;;;;;5.03;4.63;;;18.60;99.90;;;;;;5030481;28;20481;-51
2021/08/19 05:03:54;;;;;;;4.53;4.23;;;18.50;99.90;;;;;;5030127;28;20447;-55
2021/08/19 05:06:20;;;;;;;4.83;4.53;;;18.70;99.90;;;;;;5031265;28;20224;-53
2021/08/19 05:08:46;;;;;;;5.17;4.77;;;18.60;99.90;;;;;;5031999;28;20752;-52
2021/08/19 05:11:13;;;;;;;4.97;4.60;;;18.70;99.90;;;;;;5031778;28;20497;-53
2021/08/19 05:13:39;;;;;;;4.90;4.50;;;18.80;3.60;;;;;;5030273;28;20216;-52
2021/08/19 05:16:05;;;;;;;4.60;4.30;;;18.80;42.20;;;;;;5027942;28;20479;-53
2021/08/19 05:18:30;;;;;;;5.53;4.53;;;18.70;1.00;;;;;;5031827;28;20186;-51
2021/08/19 05:20:56;;;;;;;4.70;4.40;;;18.80;1.00;;;;;;5029830;28;20290;-58
2021/08/19 05:23:21;;;;;;;4.60;4.20;;;18.70;1.00;;;;;;5031471;28;20313;-53
2021/08/19 05:25:47;;;;;;;5.07;4.73;;;18.70;1.00;;;;;;5030749;28;20189;-53
2021/08/19 05:28:12;;;;;;;5.03;4.63;;;18.70;1.00;;;;;;5031628;28;20182;-53
2021/08/19 05:30:38;;;;;;;4.60;4.30;;;18.80;1.00;;;;;;5030371;28;20208;-53
2021/08/19 05:33:03;;;;;;;4.60;4.30;;;18.70;1.00;;;;;;5031425;28;20560;-55
2021/08/19 05:35:29;;;;;;;4.80;4.40;;;18.70;1.00;;;;;;5030159;28;20184;-54
2021/08/19 05:37:54;;;;;;;4.43;4.10;;;18.80;1.00;;;;;;5031541;28;20184;-53
2021/08/19 05:40:20;;;;;;;5.30;4.90;;;18.80;1.00;;;;;;5031536;28;20191;-54
2021/08/19 05:42:46;;;;;;;5.10;4.80;;;18.80;1.00;;;;;;5031296;28;20240;-55
2021/08/19 05:45:11;;;;;;;5.43;4.97;;;18.90;99.90;;;;;;5029162;28;20190;-53
2021/08/19 05:47:37;;;;;;;4.90;4.60;;;18.90;99.90;;;;;;5031303;28;20627;-53
2021/08/19 05:50:09;;;;;;;5.30;4.77;;;18.80;1.00;;;;;;5029070;28;20214;-55
2021/08/19 05:52:35;;;;;;;5.17;4.73;;;18.90;99.90;;;;;;5030667;28;20178;-56
2021/08/19 05:55:01;;;;;;;4.90;4.60;;;18.90;99.90;;;;;;5031176;28;20419;-51
2021/08/19 05:57:26;;;;;;;4.77;4.43;;;18.90;99.90;;;;;;5030982;28;20213;-56
2021/08/19 05:59:52;;;;;;;4.77;4.47;;;18.90;99.90;;;;;;5028183;28;20795;-53
2021/08/19 06:02:18;;;;;;;5.50;5.10;;;19.00;99.90;;;;;;5031089;28;20634;-53
2021/08/19 06:04:43;;;;;;;5.10;4.70;;;19.10;61.10;;;;;;5030856;28;20180;-53
2021/08/19 06:07:09;;;;;;;4.80;4.50;;;19.10;99.90;;;;;;5028759;28;20429;-54
2021/08/19 06:09:35;;;;;;;5.73;4.70;;;19.00;1.00;;;;;;5030978;28;20177;-52
2021/08/19 06:12:01;;;;;;;4.73;4.43;;;19.10;1.00;;;;;;5031002;28;20308;-55
2021/08/19 06:14:26;;;;;;;5.40;5.00;;;19.20;1.00;;;;;;5029725;28;20624;-55
2021/08/19 06:16:52;;;;;;;5.17;4.77;;;19.20;1.00;;;;;;5030262;28;20443;-51
2021/08/19 06:19:17;;;;;;;5.00;4.60;;;19.20;1.00;;;;;;5029744;28;20197;-53
2021/08/19 06:21:43;;;;;;;5.20;4.90;;;19.20;99.90;;;;;;5030036;28;20201;-53
2021/08/19 06:24:08;;;;;;;5.50;5.10;;;19.30;99.90;;;;;;5030606;28;20189;-53
2021/08/19 06:26:34;;;;;;;5.03;4.63;;;19.30;1.00;;;;;;5029749;28;20187;-54
2021/08/19 06:29:00;;;;;;;5.33;4.93;;;19.40;1.00;;;;;;5028660;28;20198;-52
2021/08/19 06:31:25;;;;;;;5.67;5.30;;;19.50;1.00;;;;;;5029728;28;20198;-52
2021/08/19 06:33:51;;;;;;;5.70;5.20;;;19.60;99.90;;;;;;5030376;28;20178;-53
2021/08/19 06:36:16;;;;;;;4.80;4.50;;;19.60;50.10;;;;;;5030156;28;20233;-56
2021/08/19 06:38:42;;;;;;;5.40;5.00;;;19.60;94.90;;;;;;5029171;28;20836;-53
2021/08/19 06:41:08;;;;;;;5.83;5.37;;;19.60;99.90;;;;;;5030384;28;20760;-54
2021/08/19 06:43:34;;;;;;;5.57;5.17;;;19.70;85.00;;;;;;5027381;28;20193;-52
2021/08/19 06:45:59;;;;;;;5.60;5.23;;;19.70;1.00;;;;;;5029648;28;20801;-56
2021/08/19 06:48:25;;;;;;;5.57;5.17;;;19.80;1.00;;;;;;5029246;28;20968;-57
2021/08/19 06:50:50;;;;;;;5.10;4.80;;;19.80;1.00;;;;;;5029823;28;20215;-55
2021/08/19 06:53:16;;;;;;;5.80;5.30;;;19.80;1.00;;;;;;5028583;28;20211;-52
2021/08/19 06:55:42;;;;;;;5.37;4.97;;;19.80;99.90;;;;;;5029792;28;20187;-55
2021/08/19 06:58:07;;;;;;;5.07;4.73;;;19.90;99.90;;;;;;5029922;28;20175;-50
2021/08/19 07:00:33;;;;;;;6.07;5.67;;;20.00;90.30;;;;;;5028445;28;20231;-53
2021/08/19 07:02:59;;;;;;;5.60;5.20;;;20.00;99.90;;;;;;5029442;28;20267;-54
2021/08/19 07:05:24;;;;;;;5.50;5.20;;;20.00;99.90;;;;;;5028691;28;20194;-48
2021/08/19 07:07:50;;;;;;;4.90;4.60;;;20.00;25.40;;;;;;5026420;28;20193;-53
2021/08/19 07:10:16;;;;;;;5.10;4.80;;;20.10;1.00;;;;;;5027758;28;20211;-54
2021/08/19 07:12:41;;;;;;;5.70;5.30;;;20.10;1.00;;;;;;5028454;28;20759;-56
2021/08/19 07:15:08;;;;;;;4.83;4.53;;;20.30;1.00;;;;;;5028757;28;20651;-54
2021/08/19 07:17:34;;;;;;;5.90;5.50;;;20.20;99.90;;;;;;5028276;28;21021;-54
2021/08/19 07:20:00;;;;;;;5.20;4.90;;;20.10;1.00;;;;;;5028637;28;20433;-52
2021/08/19 07:22:26;;;;;;;5.60;5.20;;;20.20;1.00;;;;;;5028878;28;20170;-55
2021/08/19 07:24:52;;;;;;;5.80;5.40;;;20.20;99.90;;;;;;5026741;28;20417;-55
2021/08/19 07:27:17;;;;;;;5.40;5.10;;;20.30;99.90;;;;;;5028790;28;20266;-52
2021/08/19 07:29:43;;;;;;;5.07;4.77;;;20.50;99.90;;;;;;5028846;28;20171;-51
2021/08/19 07:32:09;;;;;;;5.43;5.13;;;20.50;99.90;;;;;;5020344;28;20210;-52
2021/08/19 07:34:34;;;;;;;5.13;4.83;;;20.50;1.00;;;;;;5022106;28;20186;-54
2021/08/19 07:37:01;;;;;;;5.13;4.80;;;20.50;1.00;;;;;;5010957;28;20175;-52
2021/08/19 07:39:26;;;;;;;5.53;5.13;;;20.40;1.00;;;;;;5011181;28;20805;-50
2021/08/19 07:41:52;;;;;;;5.50;5.20;;;20.30;31.60;;;;;;5017548;28;20410;-53
2021/08/19 07:44:17;;;;;;;5.53;5.23;;;20.30;14.40;;;;;;5020312;28;20183;-53
2021/08/19 07:46:43;;;;;;;6.03;5.63;;;20.40;1.00;;;;;;5026976;28;20194;-55
2021/08/19 07:49:08;;;;;;;5.53;5.13;;;20.30;1.00;;;;;;5014058;28;20189;-54
2021/08/19 07:51:34;;;;;;;5.70;5.30;;;20.30;99.90;;;;;;5015369;28;20264;-55
2021/08/19 07:54:00;;;;;;;5.57;5.10;;;20.30;99.90;;;;;;5023171;28;20621;-52
2021/08/19 07:56:26;;;;;;;5.83;5.43;;;20.40;11.30;;;;;;5025994;28;20193;-59
2021/08/19 07:58:52;;;;;;;5.67;5.27;;;20.30;1.00;;;;;;5025754;28;20406;-53
2021/08/19 08:01:17;;;;;;;5.60;5.20;;;20.40;1.00;;;;;;5027299;28;20227;-52
2021/08/19 08:03:43;;;;;;;5.53;5.03;;;20.30;1.00;;;;;;5022406;28;20228;-56
2021/08/19 08:06:08;;;;;;;5.80;5.40;;;20.30;1.00;;;;;;5017531;28;20183;-53
2021/08/19 08:08:34;;;;;;;5.90;5.40;;;20.20;96.60;;;;;;5021588;28;20946;-56
2021/08/19 08:11:00;;;;;;;5.93;5.53;;;20.20;32.50;;;;;;5020572;28;20341;-56
2021/08/19 08:13:25;;;;;;;5.80;5.40;;;20.30;1.00;;;;;;5024833;28;20178;-59
2021/08/19 08:15:51;;;;;;;6.07;5.67;;;20.30;52.50;;;;;;5028615;28;20175;-56
2021/08/19 08:18:18;;;;;;;5.60;5.20;;;20.40;1.00;;;;;;5031322;28;20183;-51
2021/08/19 08:20:45;;;;;;;6.13;5.73;;;20.40;1.00;;;;;;5031991;28;20175;-57
2021/08/19 08:23:11;;;;;;;5.43;5.03;;;20.50;1.00;;;;;;5020394;28;20497;-55
2021/08/19 08:25:37;;;;;;;5.20;4.90;;;20.50;1.00;;;;;;5022119;28;20540;-53
2021/08/19 08:28:05;;;;;;;5.07;4.77;;;20.60;1.00;;;;;;5021648;28;20505;-54
2021/08/19 08:30:37;;;;;;;5.60;5.20;;;20.70;1.00;;;;;;5025649;28;20203;-54
2021/08/19 08:33:04;;;;;;;5.47;5.07;;;20.60;1.00;;;;;;5024737;28;20912;-55
2021/08/19 08:35:39;;;;;;;5.70;5.40;;;20.70;1.00;;;;;;5026220;28;20909;-55
2021/08/19 08:38:16;;;;;;;5.50;5.10;;;20.70;1.00;;;;;;5024700;28;20409;-56
2021/08/19 08:40:43;;;;;;;5.90;5.50;;;20.70;1.00;;;;;;5026185;28;20421;-56
2021/08/19 08:43:10;;;;;;;7.00;5.27;;;20.70;99.90;;;;;;5026695;28;20421;-55
2021/08/19 08:45:36;;;;;;;5.30;5.00;;;20.60;99.90;;;;;;5028618;28;20892;-54
2021/08/19 08:48:04;;;;;;;5.30;5.00;;;20.70;99.90;;;;;;5031793;28;20425;-52
2021/08/19 08:50:29;;;;;;;5.80;5.40;;;20.70;99.90;;;;;;5031695;28;20453;-56
2021/08/19 08:52:57;;;;;;;5.70;5.30;;;20.80;99.90;;;;;;5032220;28;20436;-55
2021/08/19 08:55:23;;;;;;;6.20;5.80;;;20.80;99.90;;;;;;5031177;28;20181;-55
2021/08/19 08:57:49;;;;;;;5.73;5.33;;;20.90;99.90;;;;;;5031678;28;20441;-51
2021/08/19 09:00:16;;;;;;;5.80;5.40;;;20.90;99.90;;;;;;5031440;28;20701;-54
2021/08/19 09:02:43;;;;;;;5.40;5.10;;;20.90;8.10;;;;;;5031651;28;20460;-52
2021/08/19 09:05:26;;;;;;;5.60;5.20;;;20.90;8.90;;;;;;5031062;28;20782;-53
2021/08/19 09:07:54;;;;;;;5.63;5.23;;;20.70;99.90;;;;;;5030243;28;20430;-54
2021/08/19 09:10:22;;;;;;;5.70;5.30;;;20.70;99.90;;;;;;5031460;28;20457;-52
2021/08/19 09:12:47;;;;;;;5.40;5.10;;;20.70;99.90;;;;;;5031267;28;20509;-54
2021/08/19 09:15:19;;;;;;;5.20;4.90;;;20.80;99.90;;;;;;5031531;28;20884;-55
2021/08/19 09:17:55;;;;;;;5.60;5.20;;;20.90;99.90;;;;;;5031325;28;20437;-56
2021/08/19 09:20:34;;;;;;;6.40;5.90;;;20.90;99.90;;;;;;5031482;28;20417;-55
2021/08/19 09:23:21;;;;;;;5.07;4.67;;;20.80;62.20;;;;;;5019080;28;20414;-55
2021/08/19 09:25:47;;;;;;;5.73;5.33;;;20.80;99.90;;;;;;5030376;28;20450;-56
2021/08/19 09:28:27;;;;;;;5.33;5.03;;;20.80;99.90;;;;;;5031370;28;20436;-52
2021/08/19 09:31:07;;;;;;;5.33;5.03;;;20.80;99.90;;;;;;5030501;28;20210;-56
2021/08/19 09:33:39;;;;;;;5.37;5.03;;;20.70;99.90;;;;;;5031024;28;20436;-54
2021/08/19 09:36:06;;;;;;;5.73;5.33;;;20.70;99.90;;;;;;5030880;28;21256;-55
2021/08/19 09:38:49;;;;;;;5.90;5.50;;;20.70;99.90;;;;;;5031420;28;20429;-52
2021/08/19 09:41:17;;;;;;;6.00;5.40;;;20.80;99.90;;;;;;5030641;28;20848;-54
2021/08/19 09:43:43;;;;;;;5.73;5.37;;;20.80;99.90;;;;;;5029871;28;20429;-57
2021/08/19 09:46:10;;;;;;;6.80;6.40;;;20.80;99.90;;;;;;5031341;28;20417;-54
2021/08/19 09:48:36;;;;;;;6.23;5.73;;;20.90;99.90;;;;;;5031166;28;20186;-55
2021/08/19 09:51:12;;;;;;;6.40;6.00;;;20.90;10.80;;;;;;5029900;28;20465;-55
2021/08/19 09:53:45;;;;;;;6.60;6.10;;;20.90;21.60;;;;;;5031041;28;20179;-51
2021/08/19 09:56:13;;;;;;;7.57;6.93;;;20.80;1.00;;;;;;5029934;28;20433;-53
2021/08/19 09:58:39;;;;;;;6.87;6.37;;;20.50;1.00;;;;;;5030905;28;20433;-50
2021/08/19 10:01:05;;;;;;;5.90;5.50;;;20.30;1.00;;;;;;5029035;28;20572;-52
2021/08/19 10:03:30;;;;;;;5.90;5.50;;;20.20;99.90;;;;;;5030831;28;20517;-56
2021/08/19 10:05:56;;;;;;;6.47;6.00;;;20.20;99.90;;;;;;5029742;28;20256;-54
2021/08/19 10:08:23;;;;;;;6.17;5.77;;;20.40;99.90;;;;;;5030815;28;20590;-55
2021/08/19 10:10:55;;;;;;;5.80;5.40;;;20.50;99.90;;;;;;5028512;28;20469;-53
2021/08/19 10:13:21;;;;;;;5.50;5.10;;;20.70;1.00;;;;;;5019990;28;20942;-53
2021/08/19 10:15:49;;;;;;;6.17;5.77;;;20.90;99.90;;;;;;5028143;28;20409;-55
2021/08/19 10:18:20;;;;;;;7.07;6.50;;;21.10;1.00;;;;;;5030707;28;20421;-49
2021/08/19 10:20:55;;;;;;;6.83;6.23;;;21.30;99.90;;;;;;5029682;28;20434;-52
2021/08/19 10:23:23;;;;;;;6.83;6.27;;;21.60;1.00;;;;;;5030741;28;20413;-56
2021/08/19 10:26:24;;;;;;;6.20;5.80;;;21.80;1.00;;;;;;5030641;28;20432;-53
2021/08/19 10:28:55;;;;;;;5.87;5.57;;;22.00;99.90;;;;;;5023457;28;20448;-53
2021/08/19 10:31:36;;;;;;;6.03;5.63;;;22.00;1.00;;;;;;5027719;28;20469;-56
2021/08/19 10:34:02;;;;;;;5.07;4.77;;;21.90;1.00;;;;;;5030290;28;20409;-53
2021/08/19 10:36:31;;;;;;;5.97;5.57;;;21.70;1.00;;;;;;5027761;28;20487;-54
2021/08/19 10:39:18;;;;;;;5.67;5.17;;;21.50;1.00;;;;;;5030428;28;20428;-49
2021/08/19 10:41:43;;;;;;;5.00;4.70;;;21.50;83.70;;;;;;5027212;28;20437;-56
2021/08/19 10:44:10;;;;;;;5.10;4.80;;;21.30;99.90;;;;;;5030165;28;20447;-54
2021/08/19 10:46:41;;;;;;;4.50;4.20;;;21.30;99.90;;;;;;5035014;28;20447;-57
2021/08/19 10:49:07;;;;;;;5.20;4.90;;;21.10;99.90;;;;;;5030980;28;20413;-55
2021/08/19 10:51:33;;;;;;;4.50;4.20;;;21.10;1.00;;;;;;5033787;28;20453;-55
2021/08/19 10:53:59;;;;;;;5.17;4.77;;;20.90;1.00;;;;;;5032498;28;20444;-54
2021/08/19 10:56:43;;;;;;;4.80;4.50;;;20.90;6.20;;;;;;5028081;28;20178;-50
2021/08/19 10:59:31;;;;;;;5.17;4.77;;;21.00;99.90;;;;;;5029476;28;20517;-55
2021/08/19 11:01:57;;;;;;;4.80;4.50;;;20.90;26.80;;;;;;5028362;28;20441;-53
2021/08/19 11:04:43;;;;;;;5.10;4.70;;;21.00;99.90;;;;;;5028273;28;20409;-55
2021/08/19 11:07:11;;;;;;;5.20;4.90;;;20.90;99.90;;;;;;5028381;28;20448;-55
2021/08/19 11:09:37;;;;;;;4.57;4.27;;;20.90;99.90;;;;;;5027858;28;20469;-56
2021/08/19 11:12:07;;;;;;;4.67;4.37;;;20.80;1.00;;;;;;5028133;28;20485;-55
2021/08/19 11:14:33;;;;;;;4.93;4.63;;;20.90;1.00;;;;;;5026120;28;20179;-52
2021/08/19 11:17:01;;;;;;;4.97;4.50;;;20.80;1.00;;;;;;5028773;28;20413;-53
2021/08/19 11:19:28;;;;;;;4.60;4.30;;;20.90;1.00;;;;;;5028139;28;20420;-56
2021/08/19 11:21:58;;;;;;;4.03;3.83;;;20.90;1.00;;;;;;5027882;28;20766;-55
2021/08/19 11:24:25;;;;;;;4.80;4.50;;;20.90;1.00;;;;;;5022435;28;20472;-50
2021/08/19 11:27:08;;;;;;;4.57;4.27;;;20.90;99.90;;;;;;5025051;28;20448;-51
2021/08/19 11:29:37;;;;;;;4.97;4.60;;;21.00;1.00;;;;;;5025215;28;20743;-53
2021/08/19 11:32:05;;;;;;;4.13;3.93;;;21.20;1.00;;;;;;5023899;28;20454;-54
2021/08/19 11:34:30;;;;;;;4.50;4.30;;;21.50;99.90;;;;;;5024494;28;20421;-57
2021/08/19 11:36:56;;;;;;;4.50;4.20;;;21.60;99.90;;;;;;5023472;28;21333;-57
2021/08/19 11:39:27;;;;;;;4.00;3.70;;;21.80;1.00;;;;;;5025455;28;20654;-56
2021/08/19 11:42:00;;;;;;;5.17;4.77;;;22.00;93.30;;;;;;5026370;28;20175;-53
2021/08/19 11:44:25;;;;;;;4.93;4.63;;;22.20;1.00;;;;;;5026847;28;20434;-53
2021/08/19 11:46:58;;;;;;;5.03;4.73;;;22.20;1.00;;;;;;5025508;28;20514;-51
2021/08/19 11:49:24;;;;;;;5.17;4.77;;;22.30;99.90;;;;;;5024496;28;20187;-54
2021/08/19 11:52:03;;;;;;;5.27;4.87;;;22.20;99.90;;;;;;5023657;28;20454;-56
2021/08/19 11:54:46;;;;;;;5.13;4.77;;;22.20;1.00;;;;;;5025838;28;20880;-54
2021/08/19 11:57:25;;;;;;;5.33;4.93;;;22.40;99.90;;;;;;5025644;28;20419;-55
2021/08/19 12:00:06;;;;;;;5.30;5.00;;;22.30;99.90;;;;;;4989089;28;1092434;-55
2021/08/19 12:02:32;;;;;;;5.23;4.93;;;22.40;99.90;;;;;;5028090;28;20306;-56
2021/08/19 12:05:06;;;;;;;5.00;4.60;;;22.40;99.90;;;;;;5028445;28;20883;-52
2021/08/19 12:07:37;;;;;;;5.20;4.90;;;22.30;99.90;;;;;;5024836;28;20176;-53
2021/08/19 12:10:05;;;;;;;5.20;4.87;;;22.30;99.90;;;;;;5027121;28;20425;-56
2021/08/19 12:12:35;;;;;;;5.77;5.37;;;22.30;99.90;;;;;;5025963;28;20423;-53
2021/08/19 12:15:03;;;;;;;5.40;5.00;;;22.30;99.90;;;;;;5027882;28;20475;-54
2021/08/19 12:17:29;;;;;;;5.60;5.23;;;22.40;99.90;;;;;;5027729;28;20417;-56
2021/08/19 12:20:16;;;;;;;5.63;5.13;;;22.20;99.90;;;;;;5027726;28;20932;-54
2021/08/19 12:22:43;;;;;;;5.20;4.80;;;22.00;30.80;;;;;;5021344;28;20399;-53
2021/08/19 12:25:19;;;;;;;5.90;5.40;;;22.00;59.20;;;;;;5026777;28;20414;-54
2021/08/19 12:27:44;;;;;;;5.57;5.27;;;21.90;99.90;;;;;;5028555;28;20938;-51
2021/08/19 12:30:10;;;;;;;6.00;5.60;;;21.80;99.90;;;;;;5028755;28;20500;-57
2021/08/19 12:32:37;;;;;;;6.00;5.60;;;21.70;99.90;;;;;;5031223;28;20550;-52
2021/08/19 12:35:11;;;;;;;5.40;5.00;;;21.70;99.90;;;;;;5024748;28;20603;-51
2021/08/19 12:37:39;;;;;;;5.00;4.70;;;21.60;99.90;;;;;;5029049;28;20479;-56
2021/08/19 12:40:15;;;;;;;5.33;4.93;;;21.50;56.50;;;;;;5032335;28;20401;-48
2021/08/19 12:42:43;;;;;;;5.03;4.73;;;21.40;1.00;;;;;;5036659;28;20440;-52
2021/08/19 12:45:10;;;;;;;5.03;4.63;;;21.30;99.90;;;;;;5027085;28;20447;-53
2021/08/19 12:47:44;;;;;;;5.73;4.90;;;21.30;1.00;;;;;;5014899;28;20407;-54
2021/08/19 12:50:16;;;;;;;4.90;4.60;;;21.30;19.10;;;;;;5034206;28;21287;-55
2021/08/19 12:52:42;;;;;;;5.20;4.80;;;21.20;1.00;;;;;;5035831;28;20532;-55
2021/08/19 12:55:15;;;;;;;5.00;4.60;;;21.20;52.70;;;;;;5021475;28;20410;-57